Time;durP1;ratioP1;P1;durP2;ratioP2;P2;SDS_P1;SDS_P2;PMS_P1;PMS_P2;Temp;Humidity;BMP_temperature;BMP_pressure;BME280_temperature;BME280_humidity;BME280_pressure;Samples;Min_cycle;Max_cycle;Signal;HPM_P1;HPM_P2
2022/08/08 00:01:38;;;;;;;8.30;3.85;;;15.00;99.90;;;;;;5072735;28;20049;-61
2022/08/08 00:04:11;;;;;;;11.05;4.30;;;14.90;99.90;;;;;;5072815;28;20142;-61
2022/08/08 00:06:47;;;;;;;8.30;4.63;;;15.00;99.90;;;;;;5072574;28;20066;-61
2022/08/08 00:09:15;;;;;;;8.05;4.57;;;14.90;99.90;;;;;;5072593;28;20040;-61
2022/08/08 00:11:50;;;;;;;8.75;4.75;;;14.80;99.90;;;;;;5072487;28;20110;-61
2022/08/08 00:14:38;;;;;;;11.82;4.80;;;14.90;99.90;;;;;;5072498;28;20047;-61
2022/08/08 00:17:25;;;;;;;7.05;3.83;;;14.80;99.90;;;;;;5072676;28;20072;-61
2022/08/08 00:20:09;;;;;;;7.65;4.50;;;14.80;99.90;;;;;;5062475;28;20095;-61
2022/08/08 00:22:50;;;;;;;8.82;4.18;;;14.80;99.90;;;;;;5052430;28;20084;-61
2022/08/08 00:25:21;;;;;;;11.15;5.60;;;14.80;99.90;;;;;;5052314;28;20101;-61
2022/08/08 00:27:51;;;;;;;8.45;4.68;;;14.70;99.90;;;;;;5051102;28;20041;-61
2022/08/08 00:30:18;;;;;;;10.43;5.55;;;14.70;99.90;;;;;;5052396;28;20037;-61
2022/08/08 00:33:01;;;;;;;10.70;5.47;;;14.70;99.90;;;;;;5052193;28;20041;-61
2022/08/08 00:35:50;;;;;;;10.45;5.78;;;14.70;99.90;;;;;;5050511;28;20087;-60
2022/08/08 00:38:39;;;;;;;8.35;4.55;;;14.70;99.90;;;;;;5061109;28;20106;-60
2022/08/08 00:41:42;;;;;;;10.70;5.00;;;14.60;99.90;;;;;;5072179;28;20087;-60
2022/08/08 00:44:26;;;;;;;9.52;5.30;;;14.60;99.90;;;;;;5072301;28;20052;-60
2022/08/08 00:47:02;;;;;;;9.93;5.50;;;14.70;99.90;;;;;;5072047;28;20041;-60
2022/08/08 00:49:42;;;;;;;9.88;5.40;;;14.70;99.90;;;;;;5072315;28;20051;-61
2022/08/08 00:52:29;;;;;;;9.75;5.10;;;14.70;99.90;;;;;;5072236;28;20040;-61
2022/08/08 00:55:12;;;;;;;10.13;5.85;;;14.70;99.90;;;;;;5072051;28;20040;-61
2022/08/08 00:58:07;;;;;;;8.98;5.45;;;14.60;99.90;;;;;;5071027;28;20485;-61
2022/08/08 01:00:59;;;;;;;10.30;5.25;;;14.50;99.90;;;;;;5071864;28;20040;-60
2022/08/08 01:03:28;;;;;;;8.57;5.10;;;14.50;99.90;;;;;;5071960;28;20094;-61
2022/08/08 01:06:17;;;;;;;9.18;5.03;;;14.60;99.90;;;;;;5071907;28;20141;-61
2022/08/08 01:09:36;;;;;;;9.60;4.68;;;14.60;99.90;;;;;;5072049;28;20045;-60
2022/08/08 01:12:34;;;;;;;10.68;5.40;;;14.60;99.90;;;;;;5029469;28;20116;-61
2022/08/08 01:15:31;;;;;;;8.25;5.40;;;14.50;99.90;;;;;;5029445;28;20080;-61
2022/08/08 01:18:27;;;;;;;9.27;4.85;;;14.50;99.90;;;;;;5071854;28;20040;-61
2022/08/08 01:21:13;;;;;;;8.88;4.78;;;14.40;99.90;;;;;;5054542;28;20175;-60
2022/08/08 01:24:17;;;;;;;8.75;5.00;;;14.40;99.90;;;;;;5051927;28;20049;-61
2022/08/08 01:27:13;;;;;;;11.55;5.22;;;14.30;99.90;;;;;;5051453;28;20041;-61
2022/08/08 01:30:09;;;;;;;8.60;4.93;;;14.40;99.90;;;;;;5051698;28;20041;-61
2022/08/08 01:33:04;;;;;;;8.48;5.60;;;14.30;99.90;;;;;;5051655;28;20033;-61
2022/08/08 01:36:02;;;;;;;10.15;6.10;;;14.40;99.90;;;;;;5031951;28;20049;-61
2022/08/08 01:39:19;;;;;;;8.02;5.13;;;14.40;99.90;;;;;;5039267;28;20049;-61
2022/08/08 01:41:58;;;;;;;9.27;5.45;;;14.30;99.90;;;;;;5028565;28;20174;-61
2022/08/08 01:44:49;;;;;;;9.35;5.18;;;14.20;99.90;;;;;;5051530;28;20486;-61
2022/08/08 01:47:36;;;;;;;10.00;5.30;;;14.20;99.90;;;;;;5054845;28;20045;-61
2022/08/08 01:50:17;;;;;;;8.18;5.22;;;14.20;99.90;;;;;;5070859;28;20405;-61
2022/08/08 01:53:08;;;;;;;9.02;5.35;;;14.20;99.90;;;;;;5054247;28;20048;-60
2022/08/08 01:56:08;;;;;;;8.90;5.43;;;14.10;99.90;;;;;;5055034;28;20482;-61
2022/08/08 01:59:14;;;;;;;8.00;4.60;;;14.20;99.90;;;;;;5055197;28;20041;-60
2022/08/08 02:01:43;;;;;;;7.78;5.15;;;14.20;99.90;;;;;;5070617;28;20401;-61
2022/08/08 02:04:37;;;;;;;10.00;5.15;;;14.40;99.90;;;;;;5054902;28;20051;-62
2022/08/08 02:07:08;;;;;;;10.05;5.43;;;14.40;99.90;;;;;;5054973;28;20091;-61
2022/08/08 02:10:01;;;;;;;8.82;4.50;;;14.40;99.90;;;;;;5070197;28;20037;-60
2022/08/08 02:12:41;;;;;;;10.32;6.10;;;14.50;99.90;;;;;;5054725;28;20485;-60
2022/08/08 02:15:15;;;;;;;8.93;5.20;;;14.50;99.90;;;;;;5054999;28;20084;-61
2022/08/08 02:17:57;;;;;;;8.38;5.30;;;14.50;99.90;;;;;;5054908;28;20033;-60
2022/08/08 02:20:41;;;;;;;9.63;5.47;;;14.60;99.90;;;;;;5054496;28;20566;-60
2022/08/08 02:23:30;;;;;;;8.95;4.68;;;14.60;99.90;;;;;;5054524;28;20085;-59
2022/08/08 02:26:10;;;;;;;10.35;5.90;;;14.60;99.90;;;;;;5054736;28;20433;-61
2022/08/08 02:29:00;;;;;;;10.93;6.10;;;14.70;99.90;;;;;;5054372;28;20512;-60
2022/08/08 02:31:54;;;;;;;8.95;6.00;;;14.70;99.90;;;;;;5054450;28;20106;-60
2022/08/08 02:34:51;;;;;;;8.73;5.60;;;14.70;99.90;;;;;;5054542;28;20052;-61
2022/08/08 02:37:48;;;;;;;12.95;7.03;;;14.70;99.90;;;;;;5055185;28;20079;-61
2022/08/08 02:40:32;;;;;;;9.40;5.47;;;14.70;99.90;;;;;;5074429;28;20120;-61
2022/08/08 02:43:16;;;;;;;10.88;6.47;;;14.60;99.90;;;;;;5074301;28;20044;-60
2022/08/08 02:46:09;;;;;;;12.18;6.05;;;14.50;99.90;;;;;;5074274;28;20393;-61
2022/08/08 02:49:04;;;;;;;11.00;6.55;;;14.50;99.90;;;;;;5072882;28;20040;-60
2022/08/08 02:51:57;;;;;;;9.45;5.45;;;14.50;99.90;;;;;;5074140;28;20497;-61
2022/08/08 02:55:02;;;;;;;12.00;6.00;;;14.50;99.90;;;;;;5072784;28;20044;-61
2022/08/08 02:58:05;;;;;;;9.15;6.25;;;14.50;99.90;;;;;;5073537;28;20048;-61
2022/08/08 03:00:58;;;;;;;8.73;5.97;;;14.50;99.90;;;;;;5073919;28;20044;-61
2022/08/08 03:04:05;;;;;;;12.00;6.82;;;14.40;99.90;;;;;;5074034;28;20127;-60
2022/08/08 03:06:54;;;;;;;8.57;6.18;;;14.40;99.90;;;;;;5073817;28;20040;-61
2022/08/08 03:09:38;;;;;;;9.63;5.40;;;14.40;99.90;;;;;;5073970;28;20045;-61
2022/08/08 03:12:22;;;;;;;9.02;5.15;;;14.50;99.90;;;;;;5073813;28;20388;-61
2022/08/08 03:15:26;;;;;;;10.65;6.40;;;14.60;99.90;;;;;;5073686;28;20048;-61
2022/08/08 03:18:06;;;;;;;10.65;6.25;;;14.50;99.90;;;;;;5073485;28;20040;-61
2022/08/08 03:20:46;;;;;;;11.57;6.90;;;14.60;99.90;;;;;;5057735;28;20044;-61
2022/08/08 03:23:12;;;;;;;9.43;5.47;;;14.50;99.90;;;;;;5053520;28;20178;-60
2022/08/08 03:25:38;;;;;;;13.75;6.32;;;14.60;99.90;;;;;;5053685;28;20124;-60
2022/08/08 03:28:10;;;;;;;13.85;6.40;;;14.60;99.90;;;;;;5053446;28;20367;-61
2022/08/08 03:30:35;;;;;;;10.10;7.35;;;14.60;99.90;;;;;;5053380;28;20481;-61
2022/08/08 03:33:19;;;;;;;10.13;6.28;;;14.60;99.90;;;;;;5053284;28;20112;-61
2022/08/08 03:35:49;;;;;;;10.75;6.50;;;14.60;99.90;;;;;;5053197;28;20037;-61
2022/08/08 03:38:18;;;;;;;9.30;5.47;;;14.60;99.90;;;;;;5068369;28;20102;-61
2022/08/08 03:40:52;;;;;;;9.38;5.47;;;14.50;99.90;;;;;;5053378;28;20128;-60
2022/08/08 03:43:18;;;;;;;10.27;6.78;;;14.50;99.90;;;;;;5053256;28;20041;-60
2022/08/08 03:45:43;;;;;;;10.30;6.63;;;14.50;99.90;;;;;;5053114;28;20450;-61
2022/08/08 03:48:09;;;;;;;10.15;6.85;;;14.50;99.90;;;;;;5052945;28;20053;-61
2022/08/08 03:50:39;;;;;;;9.45;6.38;;;14.40;99.90;;;;;;5052946;28;20095;-61
2022/08/08 03:53:11;;;;;;;10.60;6.07;;;14.40;99.90;;;;;;5053172;28;20500;-61
2022/08/08 03:55:48;;;;;;;11.90;6.82;;;14.30;99.90;;;;;;5053030;28;20116;-61
2022/08/08 03:58:22;;;;;;;12.48;7.22;;;14.30;99.90;;;;;;5052880;28;20123;-60
2022/08/08 04:00:54;;;;;;;10.35;6.18;;;14.40;99.90;;;;;;5052691;28;20120;-60
2022/08/08 04:03:20;;;;;;;11.68;7.35;;;14.30;99.90;;;;;;5052904;28;20117;-60
2022/08/08 04:05:47;;;;;;;11.65;7.00;;;14.40;99.90;;;;;;5052906;28;20401;-60
2022/08/08 04:08:30;;;;;;;11.70;6.93;;;14.40;99.90;;;;;;5052754;28;20037;-61
2022/08/08 04:10:56;;;;;;;10.73;6.93;;;14.30;99.90;;;;;;5052119;28;20041;-60
2022/08/08 04:13:22;;;;;;;9.65;6.40;;;14.30;99.90;;;;;;5052591;28;20402;-60
2022/08/08 04:15:47;;;;;;;10.07;6.47;;;14.30;99.90;;;;;;5052679;28;20396;-61
2022/08/08 04:18:13;;;;;;;10.25;7.07;;;14.30;99.90;;;;;;5067985;28;20041;-60
2022/08/08 04:20:39;;;;;;;10.18;6.57;;;14.30;99.90;;;;;;5052346;28;20037;-61
2022/08/08 04:23:06;;;;;;;10.13;5.95;;;14.40;99.90;;;;;;5052499;28;20106;-61
2022/08/08 04:25:32;;;;;;;10.55;5.43;;;14.40;99.90;;;;;;5052364;28;20048;-61
2022/08/08 04:27:58;;;;;;;10.93;6.57;;;14.40;99.90;;;;;;5052161;28;20037;-60
2022/08/08 04:30:24;;;;;;;13.25;7.25;;;14.40;99.90;;;;;;5052331;28;20043;-61
2022/08/08 04:32:49;;;;;;;11.02;6.53;;;14.40;99.90;;;;;;5052490;28;20079;-61
2022/08/08 04:35:15;;;;;;;11.75;5.95;;;14.50;99.90;;;;;;5052393;28;20440;-61
2022/08/08 04:37:40;;;;;;;9.95;7.32;;;14.50;99.90;;;;;;5056293;28;20048;-61
2022/08/08 04:40:07;;;;;;;11.57;6.53;;;14.50;99.90;;;;;;5072222;28;20051;-61
2022/08/08 04:42:33;;;;;;;11.43;6.13;;;14.50;99.90;;;;;;5072116;28;20053;-61
2022/08/08 04:45:00;;;;;;;10.52;6.20;;;14.60;99.90;;;;;;5072354;28;20072;-61
2022/08/08 04:47:25;;;;;;;12.50;7.25;;;14.60;99.90;;;;;;5072246;28;20404;-61
2022/08/08 04:49:51;;;;;;;10.35;6.32;;;14.70;99.90;;;;;;5072188;28;20037;-61
2022/08/08 04:52:17;;;;;;;10.95;6.35;;;14.70;99.90;;;;;;5072104;28;20066;-62
2022/08/08 04:54:43;;;;;;;11.32;7.63;;;14.70;99.90;;;;;;5072174;28;20093;-61
2022/08/08 04:57:09;;;;;;;9.82;6.55;;;14.70;99.90;;;;;;5071903;28;20041;-61
2022/08/08 04:59:35;;;;;;;11.68;6.72;;;14.70;99.90;;;;;;5071872;28;20041;-61
2022/08/08 05:02:01;;;;;;;13.15;6.30;;;14.80;99.90;;;;;;5072048;28;20056;-61
2022/08/08 05:04:27;;;;;;;13.23;6.97;;;14.80;99.90;;;;;;5071927;28;20040;-61
2022/08/08 05:06:52;;;;;;;12.57;6.38;;;14.80;99.90;;;;;;5070645;28;20044;-61
2022/08/08 05:09:18;;;;;;;11.60;6.05;;;14.80;99.90;;;;;;5072069;28;20056;-61
2022/08/08 05:11:44;;;;;;;12.05;6.45;;;14.90;99.90;;;;;;5072009;28;20040;-61
2022/08/08 05:14:10;;;;;;;10.93;5.95;;;14.90;99.90;;;;;;5072101;28;20032;-61
2022/08/08 05:16:37;;;;;;;10.90;6.32;;;14.90;99.90;;;;;;5072038;28;20051;-61
2022/08/08 05:19:02;;;;;;;10.60;6.57;;;15.00;99.90;;;;;;5068459;28;20041;-61
2022/08/08 05:21:28;;;;;;;11.68;6.03;;;15.10;99.90;;;;;;5052989;28;20670;-60
2022/08/08 05:23:54;;;;;;;10.43;5.90;;;15.10;99.90;;;;;;5055356;28;20047;-61
2022/08/08 05:26:23;;;;;;;12.30;6.05;;;15.20;99.90;;;;;;5054328;28;20143;-61
2022/08/08 05:28:49;;;;;;;9.40;6.00;;;15.20;99.90;;;;;;5055796;28;20045;-61
2022/08/08 05:31:15;;;;;;;12.02;6.72;;;15.20;99.90;;;;;;5055791;28;20037;-61
2022/08/08 05:33:41;;;;;;;12.25;6.35;;;15.20;99.90;;;;;;5055569;28;20091;-60
2022/08/08 05:36:10;;;;;;;11.02;6.65;;;15.20;99.90;;;;;;5055396;28;20116;-60
2022/08/08 05:38:45;;;;;;;14.55;6.28;;;15.20;99.90;;;;;;5067296;28;20174;-60
2022/08/08 05:41:16;;;;;;;11.82;6.70;;;15.30;99.90;;;;;;5075595;28;20043;-61
2022/08/08 05:43:46;;;;;;;11.20;6.53;;;15.30;99.90;;;;;;5075187;28;20048;-61
2022/08/08 05:46:12;;;;;;;12.45;6.97;;;15.30;99.90;;;;;;5075290;28;20044;-61
2022/08/08 05:48:38;;;;;;;11.73;6.22;;;15.20;99.90;;;;;;5073933;28;20048;-61
2022/08/08 05:51:04;;;;;;;11.00;6.65;;;15.20;99.90;;;;;;5075178;28;20047;-61
2022/08/08 05:53:30;;;;;;;10.25;6.00;;;15.20;99.90;;;;;;5075025;28;20044;-61
2022/08/08 05:55:58;;;;;;;11.63;6.70;;;15.20;99.90;;;;;;5075115;28;20449;-61
2022/08/08 05:58:29;;;;;;;12.85;7.05;;;15.30;99.90;;;;;;5075061;28;20082;-61
2022/08/08 06:00:57;;;;;;;12.40;7.45;;;15.40;99.90;;;;;;5075013;28;20040;-61
2022/08/08 06:03:23;;;;;;;17.02;7.38;;;15.40;99.90;;;;;;5074771;28;20041;-60
2022/08/08 06:06:00;;;;;;;13.27;6.88;;;15.40;99.90;;;;;;5074839;28;20150;-61
2022/08/08 06:08:51;;;;;;;9.95;6.45;;;15.40;99.90;;;;;;5074900;28;20633;-61
2022/08/08 06:11:18;;;;;;;10.77;6.87;;;15.40;99.90;;;;;;5074244;28;20048;-60
2022/08/08 06:13:47;;;;;;;13.35;7.28;;;15.40;99.90;;;;;;5074675;28;20041;-60
2022/08/08 06:16:14;;;;;;;11.10;7.28;;;15.40;99.90;;;;;;5074677;28;20093;-60
2022/08/08 06:18:40;;;;;;;12.10;6.47;;;15.40;99.90;;;;;;5074751;28;20079;-60
2022/08/08 06:21:08;;;;;;;12.45;6.80;;;15.40;99.90;;;;;;5055379;28;20524;-60
2022/08/08 06:23:34;;;;;;;12.32;6.82;;;15.50;99.90;;;;;;5054837;28;20393;-60
2022/08/08 06:26:08;;;;;;;13.80;7.50;;;15.50;99.90;;;;;;5054445;28;20045;-60
2022/08/08 06:28:43;;;;;;;11.25;7.45;;;15.60;99.90;;;;;;5053698;28;20116;-60
2022/08/08 06:31:11;;;;;;;11.77;7.13;;;15.60;99.90;;;;;;5053857;28;20096;-60
2022/08/08 06:34:04;;;;;;;10.95;7.45;;;15.70;99.90;;;;;;5052651;28;20041;-60
2022/08/08 06:36:39;;;;;;;15.23;9.77;;;15.50;99.90;;;;;;5053409;28;20106;-61
2022/08/08 06:39:08;;;;;;;11.15;7.07;;;15.60;99.90;;;;;;5069474;28;20119;-61
2022/08/08 06:41:47;;;;;;;10.52;7.68;;;15.60;99.90;;;;;;5072521;28;20043;-60
2022/08/08 06:44:16;;;;;;;12.57;7.47;;;15.70;99.90;;;;;;5073627;28;20044;-60
2022/08/08 06:46:43;;;;;;;9.30;6.28;;;15.70;99.90;;;;;;5073623;28;20041;-60
2022/08/08 06:49:12;;;;;;;11.50;7.45;;;15.80;99.90;;;;;;5073227;28;20183;-60
2022/08/08 06:51:39;;;;;;;11.80;7.22;;;16.00;99.90;;;;;;5073220;28;20041;-60
2022/08/08 06:54:06;;;;;;;13.57;7.43;;;16.20;99.90;;;;;;5073362;28;20040;-60
2022/08/08 06:56:33;;;;;;;13.55;7.20;;;16.40;99.90;;;;;;5073355;28;20045;-60
2022/08/08 06:58:59;;;;;;;11.18;7.47;;;16.60;99.90;;;;;;5073259;28;20052;-59
2022/08/08 07:01:28;;;;;;;11.93;6.63;;;16.80;99.90;;;;;;5073306;28;20051;-61
2022/08/08 07:03:59;;;;;;;12.15;7.35;;;17.00;99.90;;;;;;5072993;28;20455;-60
2022/08/08 07:06:30;;;;;;;13.05;7.35;;;17.10;99.90;;;;;;5073080;28;20420;-60
2022/08/08 07:09:11;;;;;;;12.45;7.28;;;17.30;99.90;;;;;;5073016;28;20032;-60
2022/08/08 07:11:41;;;;;;;12.82;6.05;;;17.50;99.90;;;;;;5073122;28;20036;-60
2022/08/08 07:14:07;;;;;;;13.30;6.65;;;17.60;99.90;;;;;;5072254;28;20036;-60
2022/08/08 07:17:05;;;;;;;11.50;6.45;;;18.00;99.90;;;;;;5072217;28;20119;-60
2022/08/08 07:19:53;;;;;;;10.93;5.07;;;18.20;99.90;;;;;;5066177;28;20037;-61
2022/08/08 07:22:26;;;;;;;13.30;4.22;;;18.40;99.90;;;;;;5052728;28;20048;-60
2022/08/08 07:25:02;;;;;;;7.00;3.63;;;18.50;99.90;;;;;;5061538;28;20580;-60
2022/08/08 07:27:36;;;;;;;6.82;2.40;;;18.80;99.90;;;;;;5041306;28;20398;-61
2022/08/08 07:30:04;;;;;;;4.35;1.40;;;19.00;99.90;;;;;;5043003;28;20124;-60
2022/08/08 07:32:31;;;;;;;4.53;1.58;;;19.10;99.90;;;;;;5049549;28;20124;-60
2022/08/08 07:34:59;;;;;;;5.20;1.55;;;19.20;99.90;;;;;;5052152;28;20388;-61
2022/08/08 07:37:25;;;;;;;6.47;1.65;;;19.40;99.90;;;;;;5054244;28;20080;-63
2022/08/08 07:39:51;;;;;;;7.30;1.98;;;19.40;99.90;;;;;;5072019;28;20129;-60
2022/08/08 07:42:21;;;;;;;6.13;1.75;;;19.30;99.90;;;;;;5071384;28;20488;-61
2022/08/08 07:44:47;;;;;;;7.57;1.83;;;19.40;99.90;;;;;;5070448;28;20484;-61
2022/08/08 07:47:13;;;;;;;4.75;1.98;;;19.50;99.90;;;;;;5070801;28;20111;-60
2022/08/08 07:49:39;;;;;;;9.13;2.13;;;19.40;99.90;;;;;;5070028;28;20115;-60
2022/08/08 07:52:07;;;;;;;6.47;2.65;;;19.60;99.90;;;;;;5070790;28;20489;-60
2022/08/08 07:54:41;;;;;;;9.63;2.40;;;19.60;99.90;;;;;;5071995;28;20111;-60
2022/08/08 07:57:16;;;;;;;5.78;2.13;;;19.60;99.90;;;;;;5072390;28;20067;-61
2022/08/08 08:00:13;;;;;;;6.03;1.85;;;19.60;99.90;;;;;;5071452;28;20040;-60
2022/08/08 08:03:00;;;;;;;5.00;1.60;;;19.70;99.90;;;;;;5072351;28;20120;-61
2022/08/08 08:05:28;;;;;;;7.38;2.15;;;19.60;99.90;;;;;;5072386;28;20046;-60
2022/08/08 08:08:01;;;;;;;6.45;1.52;;;19.70;99.90;;;;;;5072592;28;20457;-60
2022/08/08 08:10:28;;;;;;;7.35;1.60;;;19.50;99.90;;;;;;5072422;28;20094;-60
2022/08/08 08:13:19;;;;;;;8.00;1.80;;;19.70;99.90;;;;;;5072165;28;20036;-61
2022/08/08 08:16:07;;;;;;;9.60;2.30;;;19.60;99.90;;;;;;5072205;28;20493;-61
2022/08/08 08:18:43;;;;;;;7.68;1.98;;;19.60;99.90;;;;;;5071832;28;20287;-60
2022/08/08 08:21:09;;;;;;;7.90;1.65;;;19.50;99.90;;;;;;5052669;28;20047;-60
2022/08/08 08:23:35;;;;;;;6.20;2.10;;;19.50;99.90;;;;;;5052213;28;20036;-61
2022/08/08 08:26:02;;;;;;;5.35;1.60;;;19.70;99.90;;;;;;5052061;28;20485;-60
2022/08/08 08:28:27;;;;;;;6.28;1.75;;;19.80;99.90;;;;;;5052219;28;20390;-61
2022/08/08 08:30:54;;;;;;;5.35;1.48;;;19.60;99.90;;;;;;5052278;28;20093;-61
2022/08/08 08:33:21;;;;;;;7.35;1.80;;;19.80;99.90;;;;;;5052336;28;20084;-61
2022/08/08 08:35:47;;;;;;;7.47;2.05;;;19.90;99.90;;;;;;5052297;28;20110;-61
2022/08/08 08:38:13;;;;;;;4.63;1.60;;;20.00;99.90;;;;;;5060807;28;20061;-61
2022/08/08 08:40:39;;;;;;;6.07;1.30;;;20.00;99.90;;;;;;5072318;28;20101;-60
2022/08/08 08:43:06;;;;;;;6.90;1.60;;;20.10;99.90;;;;;;5072210;28;20044;-61
2022/08/08 08:45:35;;;;;;;4.25;1.27;;;20.20;99.90;;;;;;5072253;28;20466;-60
2022/08/08 08:48:00;;;;;;;4.32;1.33;;;20.30;99.90;;;;;;5070606;28;20044;-59
2022/08/08 08:50:27;;;;;;;5.45;1.50;;;20.20;99.90;;;;;;5071681;28;20042;-60
2022/08/08 08:52:57;;;;;;;6.03;1.90;;;20.30;99.90;;;;;;5070350;28;20032;-60
2022/08/08 08:55:25;;;;;;;4.60;1.25;;;20.20;99.90;;;;;;5072782;28;20448;-60
2022/08/08 08:57:54;;;;;;;5.28;1.33;;;20.20;99.90;;;;;;5078784;28;20400;-60
2022/08/08 09:00:20;;;;;;;5.00;1.50;;;20.40;99.90;;;;;;5078833;28;20036;-60
2022/08/08 09:02:48;;;;;;;4.78;1.30;;;20.20;99.90;;;;;;5078584;28;20040;-60
2022/08/08 09:05:15;;;;;;;4.75;1.17;;;20.30;99.90;;;;;;5078546;28;20404;-60
2022/08/08 09:07:44;;;;;;;3.95;1.40;;;20.10;99.90;;;;;;5078958;28;20036;-61
2022/08/08 09:10:13;;;;;;;5.45;1.42;;;20.30;99.90;;;;;;5077609;28;20079;-61
2022/08/08 09:12:41;;;;;;;6.80;1.17;;;20.30;99.90;;;;;;5078896;28;20036;-61
2022/08/08 09:15:07;;;;;;;3.58;1.15;;;19.90;99.90;;;;;;5078369;28;20096;-60
2022/08/08 09:17:33;;;;;;;5.05;1.70;;;20.10;99.90;;;;;;5078399;28;20051;-61
2022/08/08 09:20:00;;;;;;;5.10;1.58;;;20.30;99.90;;;;;;5068466;28;20053;-61
2022/08/08 09:22:26;;;;;;;6.57;1.80;;;20.30;99.90;;;;;;5058424;28;20083;-60
2022/08/08 09:24:54;;;;;;;6.78;1.20;;;20.30;99.90;;;;;;5073863;28;20041;-61
2022/08/08 09:27:20;;;;;;;4.75;1.50;;;20.50;99.90;;;;;;5056986;28;20120;-61
2022/08/08 09:30:07;;;;;;;3.90;1.50;;;20.40;99.90;;;;;;5058403;28;20121;-60
2022/08/08 09:32:34;;;;;;;4.32;1.38;;;20.10;99.90;;;;;;5058553;28;20436;-60
2022/08/08 09:35:03;;;;;;;3.78;1.15;;;20.20;99.90;;;;;;5058437;28;20466;-61
2022/08/08 09:37:35;;;;;;;5.03;1.50;;;20.30;99.90;;;;;;5060249;28;20060;-61
2022/08/08 09:40:06;;;;;;;4.28;1.50;;;20.30;99.90;;;;;;5078116;28;20059;-61
2022/08/08 09:42:34;;;;;;;4.65;1.42;;;20.50;99.90;;;;;;5078082;28;20047;-61
2022/08/08 09:45:07;;;;;;;4.57;1.40;;;20.40;99.90;;;;;;5078557;28;20093;-61
2022/08/08 09:47:35;;;;;;;5.20;1.83;;;20.50;99.90;;;;;;5077765;28;20101;-61
2022/08/08 09:50:13;;;;;;;7.13;1.40;;;20.40;99.90;;;;;;5077498;28;20029;-61
2022/08/08 09:52:50;;;;;;;5.72;1.35;;;20.60;99.90;;;;;;5077900;28;20036;-60
2022/08/08 09:55:18;;;;;;;5.10;1.40;;;20.80;99.90;;;;;;5077817;28;20106;-61
2022/08/08 09:57:49;;;;;;;4.25;1.25;;;20.90;99.90;;;;;;5077788;28;20094;-61
2022/08/08 10:00:16;;;;;;;6.00;1.40;;;20.80;99.90;;;;;;5078069;28;20392;-61
2022/08/08 10:02:44;;;;;;;5.97;1.45;;;21.10;99.90;;;;;;5076986;28;20465;-60
2022/08/08 10:05:18;;;;;;;6.40;1.42;;;21.20;99.90;;;;;;5078033;28;20501;-60
2022/08/08 10:07:50;;;;;;;4.80;1.40;;;20.90;99.90;;;;;;5063010;28;20045;-61
2022/08/08 10:10:28;;;;;;;17.55;3.28;;;21.00;99.90;;;;;;5044524;28;20037;-61
2022/08/08 10:12:54;;;;;;;15.30;3.58;;;21.00;99.90;;;;;;5051836;28;20116;-60
2022/08/08 10:15:22;;;;;;;8.85;1.50;;;21.00;99.90;;;;;;5054789;28;20036;-60
2022/08/08 10:17:49;;;;;;;4.95;1.30;;;20.90;99.90;;;;;;5054723;28;20493;-60
2022/08/08 10:20:16;;;;;;;4.25;1.33;;;20.80;99.90;;;;;;5042372;28;20502;-60
2022/08/08 10:23:04;;;;;;;5.28;1.63;;;20.60;99.90;;;;;;5034916;28;20088;-61
2022/08/08 10:25:32;;;;;;;4.03;1.42;;;20.40;99.90;;;;;;5034867;28;20045;-61
2022/08/08 10:27:59;;;;;;;5.82;1.55;;;20.40;99.90;;;;;;5034572;28;20049;-60
2022/08/08 10:30:25;;;;;;;4.90;2.00;;;20.60;99.90;;;;;;5049896;28;20034;-60
2022/08/08 10:32:56;;;;;;;7.93;1.73;;;20.40;99.90;;;;;;5034671;28;20124;-60
2022/08/08 10:35:30;;;;;;;7.45;1.80;;;20.60;99.90;;;;;;5034666;28;20049;-60
2022/08/08 10:38:04;;;;;;;4.53;1.50;;;20.80;99.90;;;;;;5047159;28;20064;-58
2022/08/08 10:40:31;;;;;;;5.47;1.50;;;20.80;99.90;;;;;;5074303;28;20054;-61
2022/08/08 10:43:04;;;;;;;6.07;1.52;;;20.70;99.90;;;;;;5074203;28;20036;-61
2022/08/08 10:45:44;;;;;;;6.15;1.85;;;20.80;99.90;;;;;;5074098;28;20044;-61
2022/08/08 10:48:11;;;;;;;6.30;1.95;;;20.50;99.90;;;;;;5072417;28;20460;-61
2022/08/08 10:50:38;;;;;;;5.30;1.70;;;20.60;99.90;;;;;;5074033;28;20085;-61
2022/08/08 10:53:06;;;;;;;6.00;1.98;;;20.70;99.90;;;;;;5073859;28;20062;-61
2022/08/08 10:55:33;;;;;;;5.10;1.60;;;20.70;99.90;;;;;;5073912;28;20040;-59
2022/08/08 10:58:04;;;;;;;4.78;1.50;;;21.00;99.90;;;;;;5073974;28;20128;-61
2022/08/08 11:00:31;;;;;;;4.82;1.40;;;21.10;99.90;;;;;;5073919;28;20044;-61
2022/08/08 11:03:09;;;;;;;5.07;1.85;;;21.20;99.90;;;;;;5073862;28;20090;-61
2022/08/08 11:05:42;;;;;;;5.75;1.70;;;21.20;99.90;;;;;;5073627;28;20366;-61
2022/08/08 11:08:18;;;;;;;5.45;1.70;;;21.50;99.90;;;;;;5055840;28;20110;-61
2022/08/08 11:10:43;;;;;;;7.13;1.70;;;21.00;99.90;;;;;;5071695;28;20047;-61
2022/08/08 11:13:18;;;;;;;9.13;1.60;;;21.10;99.90;;;;;;5071955;28;20040;-61
2022/08/08 11:15:44;;;;;;;5.78;1.40;;;21.10;99.90;;;;;;5073093;28;20509;-61
2022/08/08 11:18:10;;;;;;;5.70;1.40;;;21.40;99.90;;;;;;5072855;28;20083;-61
2022/08/08 11:20:36;;;;;;;5.78;1.60;;;21.50;99.90;;;;;;5058226;28;20045;-61
2022/08/08 11:23:02;;;;;;;5.32;1.60;;;21.50;99.90;;;;;;5053641;28;20107;-60
2022/08/08 11:25:30;;;;;;;6.70;1.50;;;21.50;99.90;;;;;;5053274;28;20554;-61
2022/08/08 11:27:58;;;;;;;4.68;1.42;;;21.50;99.90;;;;;;5053455;28;20048;-61
2022/08/08 11:30:28;;;;;;;5.32;1.40;;;21.30;99.90;;;;;;5053419;28;20401;-61
2022/08/08 11:32:57;;;;;;;4.70;1.75;;;21.60;99.90;;;;;;5053231;28;20049;-61
2022/08/08 11:35:24;;;;;;;5.20;1.23;;;21.50;99.90;;;;;;5053249;28;20052;-61
2022/08/08 11:37:50;;;;;;;5.65;1.70;;;21.70;99.90;;;;;;5058615;28;20527;-61
2022/08/08 11:40:16;;;;;;;4.80;1.30;;;21.40;99.90;;;;;;5073309;28;20422;-61
2022/08/08 11:42:42;;;;;;;6.40;1.40;;;21.30;99.90;;;;;;5073119;28;20032;-61
2022/08/08 11:45:09;;;;;;;4.47;1.40;;;21.40;99.90;;;;;;5072935;28;20124;-60
2022/08/08 11:47:37;;;;;;;5.25;1.90;;;21.20;99.90;;;;;;5072794;28;20044;-60
2022/08/08 11:50:05;;;;;;;5.45;1.38;;;21.20;99.90;;;;;;5073059;28;20116;-61
2022/08/08 11:52:32;;;;;;;3.85;1.23;;;21.20;99.90;;;;;;5054346;28;20072;-61
2022/08/08 11:54:59;;;;;;;5.22;1.30;;;21.30;99.90;;;;;;5042968;28;20044;-61
2022/08/08 11:57:27;;;;;;;5.03;1.20;;;21.30;99.90;;;;;;5041519;28;20043;-60
2022/08/08 12:00:06;;;;;;;4.18;1.30;;;21.30;99.90;;;;;;5049829;28;20655;-60
2022/08/08 12:02:43;;;;;;;4.40;1.08;;;21.20;99.90;;;;;;5053025;28;20091;-60
2022/08/08 12:05:10;;;;;;;5.50;1.20;;;21.10;99.90;;;;;;5052677;28;20041;-60
2022/08/08 12:07:53;;;;;;;5.00;1.30;;;21.70;99.90;;;;;;5052653;28;20111;-60
2022/08/08 12:10:24;;;;;;;3.55;1.40;;;21.60;99.90;;;;;;5052569;28;20044;-60
2022/08/08 12:13:09;;;;;;;4.05;1.40;;;21.70;99.90;;;;;;5052735;28;20116;-60
2022/08/08 12:15:37;;;;;;;5.78;1.48;;;21.50;99.90;;;;;;5052395;28;20041;-61
2022/08/08 12:18:12;;;;;;;4.95;1.40;;;21.30;99.90;;;;;;5052486;28;20036;-60
2022/08/08 12:20:39;;;;;;;4.68;1.55;;;21.30;99.90;;;;;;5052501;28;20042;-61
2022/08/08 12:23:05;;;;;;;5.55;1.30;;;21.50;99.90;;;;;;5032540;28;20504;-61
2022/08/08 12:25:33;;;;;;;4.93;1.60;;;21.60;99.90;;;;;;5032486;28;20049;-61
2022/08/08 12:28:13;;;;;;;5.10;1.70;;;21.50;99.90;;;;;;5032563;28;20073;-60
2022/08/08 12:30:41;;;;;;;6.75;1.70;;;21.40;99.90;;;;;;5031656;28;20034;-61
2022/08/08 12:33:26;;;;;;;4.63;1.27;;;21.40;99.90;;;;;;5032346;28;20068;-61
2022/08/08 12:35:52;;;;;;;5.47;1.63;;;21.50;99.90;;;;;;5032366;28;20128;-61
2022/08/08 12:38:18;;;;;;;6.15;1.30;;;21.30;99.90;;;;;;5050932;28;20053;-60
2022/08/08 12:40:53;;;;;;;5.20;1.35;;;21.30;99.90;;;;;;5070802;28;20044;-61
2022/08/08 12:43:30;;;;;;;7.70;2.60;;;21.40;99.90;;;;;;5072155;28;20054;-61
2022/08/08 12:45:55;;;;;;;4.75;1.50;;;21.40;99.90;;;;;;5071980;28;20047;-60
2022/08/08 12:48:23;;;;;;;3.85;1.58;;;21.60;99.90;;;;;;5072109;28;20045;-61
2022/08/08 12:50:53;;;;;;;6.55;1.70;;;21.60;99.90;;;;;;5072053;28;20045;-61
2022/08/08 12:53:26;;;;;;;4.55;1.27;;;21.60;99.90;;;;;;5071083;28;20115;-60
2022/08/08 12:56:06;;;;;;;5.68;1.40;;;21.80;99.90;;;;;;5072154;28;20040;-61
2022/08/08 12:58:45;;;;;;;4.38;1.17;;;21.80;99.90;;;;;;5072039;28;20040;-60
2022/08/08 13:01:11;;;;;;;5.22;1.40;;;22.00;99.90;;;;;;5072226;28;20040;-61
2022/08/08 13:03:47;;;;;;;3.20;1.13;;;22.10;99.90;;;;;;5072118;28;20164;-61
2022/08/08 13:06:16;;;;;;;5.30;1.60;;;22.20;99.90;;;;;;5071999;28;20098;-60
2022/08/08 13:08:45;;;;;;;7.82;1.67;;;22.30;99.90;;;;;;5071087;28;20485;-61
2022/08/08 13:11:33;;;;;;;5.75;1.60;;;22.20;99.90;;;;;;5071821;28;20476;-63
2022/08/08 13:14:02;;;;;;;3.95;1.88;;;22.60;99.90;;;;;;5071997;28;20033;-60
2022/08/08 13:16:31;;;;;;;4.43;1.25;;;22.70;99.90;;;;;;5071707;28;20049;-60
2022/08/08 13:18:59;;;;;;;4.60;2.00;;;22.30;99.90;;;;;;5070175;28;20072;-61